createdAt,value
2022-12-29T00:00:11.093Z,80.04
2022-12-29T00:01:11.315Z,80.06
2022-12-29T00:02:11.130Z,79.81
2022-12-29T00:03:11.274Z,79.56
2022-12-29T00:04:15.299Z,79.53
2022-12-29T00:05:11.096Z,79.39
2022-12-29T00:06:11.073Z,79.70
2022-12-29T00:07:11.078Z,79.46
2022-12-29T00:08:11.074Z,79.82
2022-12-29T00:09:11.092Z,79.54
2022-12-29T00:10:11.078Z,79.65
2022-12-29T00:11:11.088Z,79.76
2022-12-29T00:12:11.077Z,79.90
2022-12-29T00:13:15.077Z,80.06
2022-12-29T00:14:15.082Z,80.03
2022-12-29T00:15:15.077Z,80.10
2022-12-29T00:16:11.122Z,79.96
2022-12-29T00:17:11.073Z,80.11
2022-12-29T00:18:11.079Z,79.97
2022-12-29T00:19:11.076Z,79.97
2022-12-29T00:20:15.074Z,80.10
2022-12-29T00:21:17.082Z,80.21
2022-12-29T00:22:15.078Z,80.45
2022-12-29T00:23:15.081Z,80.50
2022-12-29T00:24:18.103Z,80.73
2022-12-29T00:25:15.085Z,80.75
2022-12-29T00:26:16.075Z,80.84
2022-12-29T00:27:15.075Z,80.85
2022-12-29T00:28:15.073Z,80.82
2022-12-29T00:29:15.075Z,80.91
2022-12-29T00:30:15.083Z,80.96
2022-12-29T00:31:15.084Z,81.05
2022-12-29T00:32:15.079Z,81.11
2022-12-29T00:33:18.092Z,81.21
2022-12-29T00:34:15.079Z,81.19
2022-12-29T00:35:15.080Z,81.39
2022-12-29T00:36:17.072Z,81.35
2022-12-29T00:37:11.082Z,81.43
2022-12-29T00:38:15.091Z,81.40
2022-12-29T00:39:18.077Z,81.16
2022-12-29T00:40:15.074Z,81.06
2022-12-29T00:41:15.081Z,80.81
2022-12-29T00:42:15.080Z,80.49
2022-12-29T00:43:15.086Z,80.67
2022-12-29T00:44:12.082Z,80.27
2022-12-29T00:45:11.077Z,80.30
2022-12-29T00:46:19.398Z,80.15
2022-12-29T00:47:14.053Z,79.99
2022-12-29T00:48:11.077Z,80.10
2022-12-29T00:49:15.081Z,80.05
2022-12-29T00:50:11.080Z,80.09
2022-12-29T00:51:11.076Z,80.08
2022-12-29T00:52:13.077Z,80.21
2022-12-29T00:53:11.089Z,80.29
2022-12-29T00:54:11.078Z,80.37
2022-12-29T00:55:11.113Z,80.53
2022-12-29T00:56:11.085Z,80.80
2022-12-29T00:57:11.077Z,81.18
2022-12-29T00:58:11.080Z,81.34
2022-12-29T00:59:12.085Z,81.42
2022-12-29T01:00:13.070Z,81.53
2022-12-29T01:01:11.133Z,81.80
2022-12-29T01:02:11.281Z,82.05
2022-12-29T01:03:11.118Z,82.38
2022-12-29T01:04:11.066Z,82.78
2022-12-29T01:05:11.079Z,83.33
2022-12-29T01:06:11.069Z,83.43
2022-12-29T01:07:11.065Z,83.71
2022-12-29T01:08:11.080Z,83.86
2022-12-29T01:09:15.079Z,84.05
2022-12-29T01:10:15.080Z,84.44
2022-12-29T01:11:14.069Z,84.45
2022-12-29T01:12:11.073Z,84.68
2022-12-29T01:13:11.069Z,84.67
2022-12-29T01:14:11.083Z,84.77
2022-12-29T01:15:11.072Z,84.99
2022-12-29T01:16:11.098Z,84.88
2022-12-29T01:17:11.070Z,84.89
2022-12-29T01:18:11.067Z,84.68
2022-12-29T01:19:11.080Z,85.02
2022-12-29T01:20:11.068Z,85.09
2022-12-29T01:21:11.075Z,85.22
2022-12-29T01:22:11.077Z,85.17
2022-12-29T01:23:11.082Z,85.25
2022-12-29T01:24:11.073Z,85.18
2022-12-29T01:25:11.080Z,85.19
2022-12-29T01:26:17.068Z,85.37
2022-12-29T01:27:11.066Z,85.57
2022-12-29T01:28:11.073Z,85.19
2022-12-29T01:29:11.081Z,85.17
2022-12-29T01:30:11.069Z,85.02
2022-12-29T01:31:14.348Z,85.08
2022-12-29T01:32:11.071Z,85.06
2022-12-29T01:33:11.072Z,85.13
2022-12-29T01:34:11.072Z,85.18
2022-12-29T01:35:11.074Z,85.06
2022-12-29T01:36:12.070Z,85.04
2022-12-29T01:37:11.071Z,85.17
2022-12-29T01:38:11.078Z,85.06
2022-12-29T01:39:11.075Z,84.94
2022-12-29T01:40:11.072Z,85.00
2022-12-29T01:41:12.080Z,84.95
2022-12-29T01:42:17.070Z,84.83
2022-12-29T01:43:12.072Z,84.66
2022-12-29T01:44:19.081Z,84.87
2022-12-29T01:45:14.162Z,84.77
2022-12-29T01:46:21.131Z,84.65
2022-12-29T01:47:11.082Z,84.74
2022-12-29T01:48:12.080Z,84.61
2022-12-29T01:49:21.091Z,84.76
2022-12-29T01:50:21.073Z,84.79
2022-12-29T01:51:11.077Z,85.01
2022-12-29T01:52:11.082Z,85.03
2022-12-29T01:53:20.084Z,85.00
2022-12-29T01:54:20.068Z,85.09
2022-12-29T01:55:11.090Z,85.13
2022-12-29T01:56:13.074Z,85.31
2022-12-29T01:57:16.075Z,85.40
2022-12-29T01:58:11.073Z,85.38
2022-12-29T01:59:17.074Z,85.31
2022-12-29T02:00:13.082Z,85.59
2022-12-29T02:01:11.137Z,85.66
2022-12-29T02:02:11.170Z,85.75
2022-12-29T02:03:11.193Z,85.88
2022-12-29T02:04:12.074Z,86.12
2022-12-29T02:05:14.076Z,86.26
2022-12-29T02:06:15.074Z,86.47
2022-12-29T02:07:16.076Z,86.63
2022-12-29T02:08:11.075Z,86.73
2022-12-29T02:09:11.081Z,86.72
2022-12-29T02:10:11.073Z,86.83
2022-12-29T02:11:11.074Z,87.15
2022-12-29T02:12:11.081Z,86.89
2022-12-29T02:13:11.072Z,87.08
2022-12-29T02:14:13.080Z,87.19
2022-12-29T02:15:11.083Z,87.49
2022-12-29T02:16:21.108Z,87.36
2022-12-29T02:17:21.074Z,87.48
2022-12-29T02:18:21.076Z,87.48
2022-12-29T02:19:19.076Z,87.49
2022-12-29T02:20:19.081Z,87.62
2022-12-29T02:21:23.104Z,87.58
2022-12-29T02:22:19.072Z,87.45
2022-12-29T02:23:21.070Z,87.32
2022-12-29T02:24:21.104Z,87.43
2022-12-29T02:25:19.077Z,87.44
2022-12-29T02:26:19.075Z,87.65
2022-12-29T02:27:19.073Z,87.61
2022-12-29T02:28:21.072Z,87.43
2022-12-29T02:29:19.074Z,87.68
2022-12-29T02:30:18.084Z,87.58
2022-12-29T02:31:21.155Z,87.71
2022-12-29T02:32:19.086Z,87.76
2022-12-29T02:33:19.073Z,87.95
2022-12-29T02:34:19.077Z,88.08
2022-12-29T02:35:19.098Z,88.06
2022-12-29T02:36:19.075Z,88.12
2022-12-29T02:37:19.075Z,88.38
2022-12-29T02:38:21.104Z,88.33
2022-12-29T02:39:19.082Z,88.51
2022-12-29T02:40:21.074Z,89.13
2022-12-29T02:41:18.082Z,88.94
2022-12-29T02:42:19.074Z,88.99
2022-12-29T02:43:21.080Z,88.85
2022-12-29T02:44:17.073Z,89.24
2022-12-29T02:45:18.111Z,89.39
2022-12-29T02:46:19.116Z,89.22
2022-12-29T02:47:21.076Z,89.40
2022-12-29T02:48:19.074Z,89.24
2022-12-29T02:49:19.080Z,88.96
2022-12-29T02:50:21.114Z,88.96
2022-12-29T02:51:17.077Z,89.17
2022-12-29T02:52:17.075Z,89.32
2022-12-29T02:53:16.074Z,89.19
2022-12-29T02:54:15.088Z,89.52
2022-12-29T02:55:11.077Z,89.42
2022-12-29T02:56:11.076Z,89.28
2022-12-29T02:57:21.078Z,89.47
2022-12-29T02:58:18.082Z,89.56
2022-12-29T02:59:11.076Z,89.62
2022-12-29T03:00:14.083Z,89.58
2022-12-29T03:01:21.211Z,89.58
2022-12-29T03:02:25.164Z,89.80
2022-12-29T03:03:19.157Z,90.11
2022-12-29T03:04:21.105Z,90.00
2022-12-29T03:05:19.075Z,90.21
2022-12-29T03:06:19.071Z,90.40
2022-12-29T03:07:19.080Z,90.31
2022-12-29T03:08:19.092Z,90.30
2022-12-29T03:09:19.500Z,90.16
2022-12-29T03:10:21.078Z,90.11
2022-12-29T03:11:15.072Z,90.25
2022-12-29T03:12:21.094Z,90.05
2022-12-29T03:13:23.078Z,90.19
2022-12-29T03:14:23.078Z,89.88
2022-12-29T03:15:22.075Z,89.67
2022-12-29T03:16:19.111Z,88.47
2022-12-29T03:17:21.078Z,88.28
2022-12-29T03:18:21.102Z,87.43
2022-12-29T03:19:19.128Z,87.14
2022-12-29T03:20:15.076Z,86.85
2022-12-29T03:21:19.107Z,86.53
2022-12-29T03:22:21.077Z,86.28
2022-12-29T03:23:11.076Z,86.49
2022-12-29T03:24:11.078Z,86.17
2022-12-29T03:25:19.074Z,85.80
2022-12-29T03:26:12.075Z,85.76
2022-12-29T03:27:14.079Z,85.31
2022-12-29T03:28:21.087Z,84.70
2022-12-29T03:29:11.078Z,84.75
2022-12-29T03:30:11.080Z,84.40
2022-12-29T03:31:11.111Z,84.61
2022-12-29T03:32:12.075Z,84.30
2022-12-29T03:33:16.087Z,84.41
2022-12-29T03:34:11.089Z,84.42
2022-12-29T03:35:12.080Z,83.93
2022-12-29T03:36:14.093Z,83.70
2022-12-29T03:37:15.079Z,83.68
2022-12-29T03:38:19.078Z,83.51
2022-12-29T03:39:14.082Z,83.41
2022-12-29T03:40:11.085Z,83.47
2022-12-29T03:41:15.080Z,83.24
2022-12-29T03:42:15.082Z,83.40
2022-12-29T03:43:11.079Z,83.44
2022-12-29T03:44:11.079Z,83.16
2022-12-29T03:45:11.081Z,83.28
2022-12-29T03:46:11.175Z,83.17
2022-12-29T03:47:11.081Z,83.14
2022-12-29T03:48:11.079Z,83.21
2022-12-29T03:49:11.082Z,83.18
2022-12-29T03:50:12.085Z,83.08
2022-12-29T03:51:11.079Z,83.18
2022-12-29T03:52:11.080Z,83.15
2022-12-29T03:53:11.103Z,83.12
2022-12-29T03:54:11.081Z,83.41
2022-12-29T03:55:11.079Z,83.12
2022-12-29T03:56:11.081Z,82.98
2022-12-29T03:57:13.105Z,83.12
2022-12-29T03:58:11.083Z,82.89
2022-12-29T03:59:11.080Z,82.67
2022-12-29T04:00:11.065Z,82.84
2022-12-29T04:01:11.094Z,82.70
2022-12-29T04:02:11.256Z,82.79
2022-12-29T04:03:11.204Z,82.69
2022-12-29T04:04:11.065Z,82.81
2022-12-29T04:05:11.063Z,82.73
2022-12-29T04:06:11.084Z,82.75
2022-12-29T04:07:11.065Z,82.77
2022-12-29T04:08:11.062Z,82.82
2022-12-29T04:09:11.055Z,82.83
2022-12-29T04:10:11.077Z,82.96
2022-12-29T04:11:11.072Z,83.05
2022-12-29T04:12:11.065Z,83.25
2022-12-29T04:13:11.060Z,83.18
2022-12-29T04:14:11.060Z,83.16
2022-12-29T04:15:11.058Z,83.12
2022-12-29T04:16:11.099Z,83.26
2022-12-29T04:17:11.060Z,83.40
2022-12-29T04:18:11.065Z,83.29
2022-12-29T04:19:11.059Z,83.57
2022-12-29T04:20:15.063Z,83.54
2022-12-29T04:21:11.061Z,83.37
2022-12-29T04:22:11.067Z,83.39
2022-12-29T04:23:11.065Z,83.44
2022-12-29T04:24:11.061Z,83.45
2022-12-29T04:25:11.061Z,83.45
2022-12-29T04:26:11.066Z,83.45
2022-12-29T04:27:11.059Z,83.44
2022-12-29T04:28:11.069Z,83.45
2022-12-29T04:29:11.065Z,83.36
2022-12-29T04:30:11.060Z,83.26
2022-12-29T04:31:11.178Z,83.39
2022-12-29T04:32:11.081Z,83.37
2022-12-29T04:33:11.071Z,83.30
2022-12-29T04:34:11.072Z,83.38
2022-12-29T04:35:11.064Z,83.33
2022-12-29T04:36:11.063Z,83.29
2022-12-29T04:37:11.064Z,83.31
2022-12-29T04:38:11.065Z,83.28
2022-12-29T04:39:11.061Z,83.23
2022-12-29T04:40:11.062Z,83.31
2022-12-29T04:41:11.064Z,83.36
2022-12-29T04:42:11.059Z,83.46
2022-12-29T04:43:11.065Z,83.56
2022-12-29T04:44:11.077Z,83.60
2022-12-29T04:45:11.077Z,83.46
2022-12-29T04:46:11.098Z,83.52
2022-12-29T04:47:11.070Z,83.70
2022-12-29T04:48:11.062Z,83.58
2022-12-29T04:49:13.074Z,83.60
2022-12-29T04:50:11.066Z,83.65
2022-12-29T04:51:11.064Z,83.66
2022-12-29T04:52:11.064Z,83.61
2022-12-29T04:53:11.072Z,83.56
2022-12-29T04:54:11.062Z,83.50
2022-12-29T04:55:11.090Z,83.44
2022-12-29T04:56:11.073Z,83.51
2022-12-29T04:57:11.071Z,83.42
2022-12-29T04:58:11.066Z,83.76
2022-12-29T04:59:11.072Z,83.81
2022-12-29T05:00:11.067Z,83.66
2022-12-29T05:01:11.067Z,83.85
2022-12-29T05:02:11.276Z,83.73
2022-12-29T05:03:11.242Z,83.75
2022-12-29T05:04:11.068Z,83.67
2022-12-29T05:05:11.071Z,83.71
2022-12-29T05:06:11.065Z,83.81
2022-12-29T05:07:11.067Z,83.91
2022-12-29T05:08:11.074Z,83.71
2022-12-29T05:09:11.081Z,83.63
2022-12-29T05:10:11.063Z,83.64
2022-12-29T05:11:11.073Z,83.55
2022-12-29T05:12:11.067Z,83.53
2022-12-29T05:13:11.070Z,83.45
2022-12-29T05:14:11.081Z,83.45
2022-12-29T05:15:11.067Z,83.47
2022-12-29T05:16:11.167Z,83.53
2022-12-29T05:17:11.079Z,83.60
2022-12-29T05:18:11.069Z,83.63
2022-12-29T05:19:11.070Z,83.49
2022-12-29T05:20:11.067Z,83.50
2022-12-29T05:21:11.075Z,83.45
2022-12-29T05:22:11.066Z,83.52
2022-12-29T05:23:11.078Z,83.54
2022-12-29T05:24:11.069Z,83.46
2022-12-29T05:25:11.079Z,83.60
2022-12-29T05:26:11.070Z,83.62
2022-12-29T05:27:11.072Z,83.61
2022-12-29T05:28:11.073Z,83.78
2022-12-29T05:29:11.070Z,83.77
2022-12-29T05:30:11.087Z,83.87
2022-12-29T05:31:11.151Z,83.86
2022-12-29T05:32:11.068Z,83.85
2022-12-29T05:33:11.109Z,83.97
2022-12-29T05:34:11.073Z,83.96
2022-12-29T05:35:11.071Z,84.09
2022-12-29T05:36:11.071Z,84.17
2022-12-29T05:37:11.066Z,84.22
2022-12-29T05:38:11.076Z,84.12
2022-12-29T05:39:11.073Z,84.11
2022-12-29T05:40:11.063Z,84.10
2022-12-29T05:41:11.077Z,83.99
2022-12-29T05:42:11.071Z,84.07
2022-12-29T05:43:11.066Z,84.23
2022-12-29T05:44:11.074Z,84.09
2022-12-29T05:45:12.088Z,84.19
2022-12-29T05:46:11.089Z,84.00
2022-12-29T05:47:11.145Z,83.98
2022-12-29T05:48:11.070Z,84.04
2022-12-29T05:49:11.074Z,83.99
2022-12-29T05:50:11.070Z,83.93
2022-12-29T05:51:11.070Z,83.86
2022-12-29T05:52:11.071Z,83.74
2022-12-29T05:53:11.067Z,83.77
2022-12-29T05:54:11.087Z,83.76
2022-12-29T05:55:11.079Z,83.65
2022-12-29T05:56:11.072Z,83.59
2022-12-29T05:57:11.075Z,83.56
2022-12-29T05:58:11.070Z,83.51
2022-12-29T05:59:11.066Z,83.55
2022-12-29T06:00:11.084Z,83.50
2022-12-29T06:01:11.069Z,83.49
2022-12-29T06:02:11.249Z,83.55
2022-12-29T06:03:11.234Z,83.47
2022-12-29T06:04:11.097Z,83.38
2022-12-29T06:05:11.115Z,83.39
2022-12-29T06:06:11.071Z,83.43
2022-12-29T06:07:11.070Z,83.37
2022-12-29T06:08:11.075Z,83.44
2022-12-29T06:09:12.074Z,83.50
2022-12-29T06:10:11.073Z,83.55
2022-12-29T06:11:11.073Z,83.54
2022-12-29T06:12:11.070Z,83.54
2022-12-29T06:13:11.078Z,83.40
2022-12-29T06:14:11.071Z,83.37
2022-12-29T06:15:11.073Z,83.32
2022-12-29T06:16:11.117Z,83.28
2022-12-29T06:17:11.073Z,83.38
2022-12-29T06:18:16.492Z,83.23
2022-12-29T06:19:13.374Z,83.19
2022-12-29T06:20:11.080Z,83.15
2022-12-29T06:21:11.073Z,83.00
2022-12-29T06:22:11.073Z,83.08
2022-12-29T06:23:11.072Z,83.13
2022-12-29T06:24:11.077Z,83.15
2022-12-29T06:25:11.094Z,83.28
2022-12-29T06:26:11.073Z,83.26
2022-12-29T06:27:11.079Z,83.43
2022-12-29T06:28:11.076Z,83.46
2022-12-29T06:29:11.081Z,83.36
2022-12-29T06:30:11.072Z,83.52
2022-12-29T06:31:11.102Z,83.44
2022-12-29T06:32:11.185Z,83.38
2022-12-29T06:33:11.071Z,83.42
2022-12-29T06:34:11.072Z,83.33
2022-12-29T06:35:11.090Z,83.47
2022-12-29T06:36:11.075Z,83.36
2022-12-29T06:37:11.071Z,83.30
2022-12-29T06:38:11.073Z,83.26
2022-12-29T06:39:11.074Z,83.31
2022-12-29T06:40:11.078Z,83.27
2022-12-29T06:41:11.073Z,83.27
2022-12-29T06:42:11.075Z,83.15
2022-12-29T06:43:11.072Z,83.10
2022-12-29T06:44:11.079Z,83.07
2022-12-29T06:45:11.088Z,83.25
2022-12-29T06:46:11.135Z,83.18
2022-12-29T06:47:11.075Z,83.20
2022-12-29T06:48:11.084Z,83.17
2022-12-29T06:49:11.079Z,83.16
2022-12-29T06:50:11.079Z,83.24
2022-12-29T06:51:11.090Z,83.19
2022-12-29T06:52:12.930Z,83.39
2022-12-29T06:53:11.071Z,83.26
2022-12-29T06:54:11.084Z,83.29
2022-12-29T06:55:11.081Z,83.40
2022-12-29T06:56:11.075Z,83.40
2022-12-29T06:57:11.089Z,83.33
2022-12-29T06:58:11.077Z,83.23
2022-12-29T06:59:11.084Z,83.24
2022-12-29T07:00:11.095Z,83.24
2022-12-29T07:01:11.119Z,83.25
2022-12-29T07:02:12.261Z,83.26
2022-12-29T07:03:11.148Z,83.21
2022-12-29T07:04:11.064Z,83.12
2022-12-29T07:05:11.082Z,83.07
2022-12-29T07:06:11.067Z,83.11
2022-12-29T07:07:11.063Z,83.15
2022-12-29T07:08:11.060Z,82.97
2022-12-29T07:09:11.068Z,82.92
2022-12-29T07:10:11.064Z,82.99
2022-12-29T07:11:11.060Z,82.86
2022-12-29T07:12:11.076Z,82.72
2022-12-29T07:13:11.071Z,82.63
2022-12-29T07:14:11.061Z,82.50
2022-12-29T07:15:11.080Z,82.58
2022-12-29T07:16:11.152Z,82.52
2022-12-29T07:17:11.135Z,82.60
2022-12-29T07:18:11.071Z,82.42
2022-12-29T07:19:11.072Z,82.45
2022-12-29T07:20:11.066Z,82.49
2022-12-29T07:21:11.079Z,82.54
2022-12-29T07:22:11.072Z,82.51
2022-12-29T07:23:11.068Z,82.56
2022-12-29T07:24:11.068Z,82.67
2022-12-29T07:25:11.065Z,82.69
2022-12-29T07:26:12.061Z,82.91
2022-12-29T07:27:11.068Z,82.97
2022-12-29T07:28:11.066Z,83.15
2022-12-29T07:29:11.061Z,83.11
2022-12-29T07:30:11.071Z,82.95
2022-12-29T07:31:18.289Z,83.02
2022-12-29T07:32:11.119Z,82.99
2022-12-29T07:33:11.067Z,83.02
2022-12-29T07:34:11.077Z,83.14
2022-12-29T07:35:11.065Z,83.13
2022-12-29T07:36:11.094Z,83.09
2022-12-29T07:37:11.076Z,82.98
2022-12-29T07:38:11.073Z,83.07
2022-12-29T07:39:11.065Z,83.05
2022-12-29T07:40:11.067Z,83.04
2022-12-29T07:41:11.065Z,83.11
2022-12-29T07:42:11.087Z,83.14
2022-12-29T07:43:11.066Z,83.14
2022-12-29T07:44:11.064Z,83.05
2022-12-29T07:45:11.070Z,83.06
2022-12-29T07:46:18.935Z,83.04
2022-12-29T07:47:13.415Z,83.03
2022-12-29T07:48:12.130Z,83.08
2022-12-29T07:49:11.092Z,83.06
2022-12-29T07:50:11.060Z,82.90
2022-12-29T07:51:11.068Z,82.94
2022-12-29T07:52:11.074Z,82.90
2022-12-29T07:53:11.072Z,82.98
2022-12-29T07:54:11.075Z,82.85
2022-12-29T07:55:11.081Z,82.94
2022-12-29T07:56:11.063Z,82.82
2022-12-29T07:57:11.101Z,82.87
2022-12-29T07:58:11.074Z,82.77
2022-12-29T07:59:11.073Z,82.52
2022-12-29T08:00:12.071Z,82.18
2022-12-29T08:01:11.102Z,82.13
2022-12-29T08:02:12.161Z,81.76
2022-12-29T08:03:11.067Z,82.00
2022-12-29T08:04:11.105Z,81.96
2022-12-29T08:05:11.068Z,81.91
2022-12-29T08:06:12.076Z,81.95
2022-12-29T08:07:11.069Z,81.79
2022-12-29T08:08:11.070Z,81.84
2022-12-29T08:09:13.680Z,81.72
2022-12-29T08:10:11.068Z,81.85
2022-12-29T08:11:11.070Z,81.97
2022-12-29T08:12:11.069Z,81.94
2022-12-29T08:13:11.066Z,81.88
2022-12-29T08:14:11.069Z,81.70
2022-12-29T08:15:11.065Z,81.94
2022-12-29T08:16:11.154Z,81.90
2022-12-29T08:17:11.093Z,81.80
2022-12-29T08:18:11.065Z,81.70
2022-12-29T08:19:11.080Z,81.84
2022-12-29T08:20:11.078Z,81.93
2022-12-29T08:21:11.070Z,81.84
2022-12-29T08:22:11.069Z,81.80
2022-12-29T08:23:11.077Z,81.80
2022-12-29T08:24:11.071Z,81.79
2022-12-29T08:25:11.070Z,81.76
2022-12-29T08:26:11.079Z,81.62
2022-12-29T08:27:17.998Z,81.42
2022-12-29T08:28:13.322Z,81.59
2022-12-29T08:29:11.074Z,81.43
2022-12-29T08:30:11.070Z,81.47
2022-12-29T08:31:11.100Z,81.58
2022-12-29T08:32:11.083Z,81.31
2022-12-29T08:33:11.069Z,81.19
2022-12-29T08:34:11.071Z,81.14
2022-12-29T08:35:11.077Z,81.25
2022-12-29T08:36:11.067Z,81.41
2022-12-29T08:37:11.110Z,81.29
2022-12-29T08:38:11.076Z,81.49
2022-12-29T08:39:11.077Z,81.52
2022-12-29T08:40:11.072Z,81.44
2022-12-29T08:41:11.076Z,81.54
2022-12-29T08:42:11.075Z,81.69
2022-12-29T08:43:11.065Z,81.72
2022-12-29T08:44:11.077Z,81.83
2022-12-29T08:45:11.074Z,82.04
2022-12-29T08:46:11.141Z,82.00
2022-12-29T08:47:12.071Z,82.14
2022-12-29T08:48:11.069Z,82.13
2022-12-29T08:49:11.078Z,82.26
2022-12-29T08:50:11.071Z,82.15
2022-12-29T08:51:11.085Z,82.21
2022-12-29T08:52:11.091Z,82.39
2022-12-29T08:53:11.077Z,82.31
2022-12-29T08:54:11.088Z,82.54
2022-12-29T08:55:11.079Z,82.44
2022-12-29T08:56:11.072Z,82.37
2022-12-29T08:57:11.133Z,82.36
2022-12-29T08:58:11.100Z,82.63
2022-12-29T08:59:11.085Z,82.74
2022-12-29T09:00:11.073Z,82.89
2022-12-29T09:01:11.107Z,82.98
2022-12-29T09:02:14.681Z,83.24
2022-12-29T09:03:11.363Z,83.57
2022-12-29T09:04:16.434Z,83.80
2022-12-29T09:05:13.426Z,84.35
2022-12-29T09:06:11.080Z,84.35
2022-12-29T09:07:11.074Z,84.35
2022-12-29T09:08:11.072Z,84.71
2022-12-29T09:09:11.071Z,84.94
2022-12-29T09:10:11.068Z,85.23
2022-12-29T09:11:19.081Z,85.33
2022-12-29T09:12:11.072Z,85.11
2022-12-29T09:13:11.082Z,85.18
2022-12-29T09:14:11.089Z,85.38
2022-12-29T09:15:11.076Z,85.52
2022-12-29T09:16:11.137Z,85.42
2022-12-29T09:17:15.076Z,85.52
2022-12-29T09:18:14.886Z,85.58
2022-12-29T09:19:13.199Z,85.59
2022-12-29T09:20:11.073Z,85.38
2022-12-29T09:21:11.071Z,85.18
2022-12-29T09:22:11.079Z,85.24
2022-12-29T09:23:11.075Z,85.55
2022-12-29T09:24:11.071Z,85.38
2022-12-29T09:25:11.077Z,85.40
2022-12-29T09:26:11.077Z,85.37
2022-12-29T09:27:11.072Z,85.38
2022-12-29T09:28:12.074Z,85.43
2022-12-29T09:29:11.079Z,85.36
2022-12-29T09:30:11.121Z,85.38
2022-12-29T09:31:11.118Z,85.31
2022-12-29T09:32:17.102Z,85.49
2022-12-29T09:33:13.233Z,85.36
2022-12-29T09:34:11.075Z,85.25
2022-12-29T09:35:11.107Z,85.08
2022-12-29T09:36:11.098Z,85.04
2022-12-29T09:37:11.073Z,84.86
2022-12-29T09:38:11.075Z,84.87
2022-12-29T09:39:11.076Z,84.68
2022-12-29T09:40:15.070Z,84.52
2022-12-29T09:41:18.075Z,84.46
2022-12-29T09:42:17.079Z,84.14
2022-12-29T09:43:19.072Z,84.09
2022-12-29T09:44:19.072Z,84.19
2022-12-29T09:45:17.076Z,84.19
2022-12-29T09:46:22.160Z,84.15
2022-12-29T09:47:13.239Z,83.92
2022-12-29T09:48:18.107Z,83.71
2022-12-29T09:49:19.074Z,83.75
2022-12-29T09:50:19.096Z,83.58
2022-12-29T09:51:14.077Z,83.19
2022-12-29T09:52:16.079Z,83.07
2022-12-29T09:53:24.074Z,82.97
2022-12-29T09:54:19.079Z,82.87
2022-12-29T09:55:19.083Z,83.03
2022-12-29T09:56:16.075Z,82.78
2022-12-29T09:57:19.077Z,82.67
2022-12-29T09:58:19.079Z,82.53
2022-12-29T09:59:15.093Z,82.58
2022-12-29T10:00:19.080Z,82.14
2022-12-29T10:01:22.169Z,82.15
2022-12-29T10:02:19.200Z,82.15
2022-12-29T10:03:18.190Z,82.01
2022-12-29T10:04:11.066Z,82.35
2022-12-29T10:05:19.066Z,82.22
2022-12-29T10:06:22.071Z,82.19
2022-12-29T10:07:29.580Z,82.21
2022-12-29T10:08:24.267Z,82.02
2022-12-29T10:09:25.069Z,81.96
2022-12-29T10:10:22.077Z,81.95
2022-12-29T10:11:19.061Z,81.98
2022-12-29T10:12:22.077Z,81.79
2022-12-29T10:13:19.070Z,82.01
2022-12-29T10:14:19.069Z,81.62
2022-12-29T10:15:22.068Z,81.74
2022-12-29T10:16:19.106Z,81.67
2022-12-29T10:17:22.065Z,81.38
2022-12-29T10:18:19.064Z,81.45
2022-12-29T10:19:19.066Z,81.30
2022-12-29T10:20:19.160Z,80.94
2022-12-29T10:21:19.070Z,80.67
2022-12-29T10:22:22.065Z,80.58
2022-12-29T10:23:22.069Z,80.82
2022-12-29T10:24:12.068Z,80.61
2022-12-29T10:25:19.077Z,80.47
2022-12-29T10:26:14.076Z,80.39
2022-12-29T10:27:14.072Z,80.24
2022-12-29T10:28:19.063Z,80.06
2022-12-29T10:29:17.069Z,79.86
2022-12-29T10:30:14.091Z,80.01
2022-12-29T10:31:16.151Z,79.37
2022-12-29T10:32:19.068Z,79.10
2022-12-29T10:33:15.069Z,79.32
2022-12-29T10:34:22.068Z,79.47
2022-12-29T10:35:19.068Z,79.10
2022-12-29T10:36:19.063Z,79.19
2022-12-29T10:37:27.543Z,79.09
2022-12-29T10:38:21.276Z,78.69
2022-12-29T10:39:22.069Z,78.41
2022-12-29T10:40:19.071Z,78.59
2022-12-29T10:41:22.079Z,78.52
2022-12-29T10:42:22.072Z,78.42
2022-12-29T10:43:21.237Z,78.03
2022-12-29T10:44:14.091Z,77.57
2022-12-29T10:45:17.140Z,77.98
2022-12-29T10:46:14.200Z,77.54
2022-12-29T10:47:15.069Z,77.26
2022-12-29T10:48:23.945Z,77.40
2022-12-29T10:49:22.164Z,76.97
2022-12-29T10:50:13.074Z,76.96
2022-12-29T10:51:11.066Z,76.39
2022-12-29T10:52:11.081Z,76.66
2022-12-29T10:53:15.069Z,76.84
2022-12-29T10:54:22.070Z,76.53
2022-12-29T10:55:18.071Z,76.48
2022-12-29T10:56:19.080Z,76.74
2022-12-29T10:57:19.076Z,76.46
2022-12-29T10:58:14.083Z,75.73
2022-12-29T10:59:19.077Z,76.05
2022-12-29T11:00:15.098Z,75.60
2022-12-29T11:01:13.135Z,76.07
2022-12-29T11:02:22.241Z,76.45
2022-12-29T11:03:21.091Z,76.03
2022-12-29T11:04:19.071Z,75.91
2022-12-29T11:05:19.082Z,75.82
2022-12-29T11:06:17.072Z,75.75
2022-12-29T11:07:15.832Z,75.68
2022-12-29T11:08:20.344Z,75.78
2022-12-29T11:09:22.293Z,75.47
2022-12-29T11:10:22.104Z,75.35
2022-12-29T11:11:11.088Z,75.48
2022-12-29T11:12:19.072Z,75.31
2022-12-29T11:13:18.070Z,75.20
2022-12-29T11:14:18.082Z,75.17
2022-12-29T11:15:15.102Z,74.87
2022-12-29T11:16:12.172Z,74.94
2022-12-29T11:17:17.073Z,74.92
2022-12-29T11:18:19.083Z,74.93
2022-12-29T11:19:19.074Z,74.51
2022-12-29T11:20:19.071Z,74.19
2022-12-29T11:21:19.069Z,74.23
2022-12-29T11:22:19.101Z,74.19
2022-12-29T11:23:19.084Z,73.98
2022-12-29T11:24:19.075Z,74.28
2022-12-29T11:25:15.072Z,74.14
2022-12-29T11:26:15.073Z,73.49
2022-12-29T11:27:22.081Z,73.92
2022-12-29T11:28:17.072Z,73.84
2022-12-29T11:29:19.078Z,74.19
2022-12-29T11:30:23.079Z,73.45
2022-12-29T11:31:11.090Z,73.73
2022-12-29T11:32:22.622Z,73.82
2022-12-29T11:33:13.385Z,73.82
2022-12-29T11:34:15.073Z,73.88
2022-12-29T11:35:19.075Z,73.63
2022-12-29T11:36:17.091Z,73.80
2022-12-29T11:37:15.077Z,73.30
2022-12-29T11:38:20.070Z,73.85
2022-12-29T11:39:19.078Z,73.19
2022-12-29T11:40:18.072Z,73.19
2022-12-29T11:41:13.104Z,73.12
2022-12-29T11:42:16.071Z,73.36
2022-12-29T11:43:21.075Z,72.83
2022-12-29T11:44:15.073Z,73.17
2022-12-29T11:45:17.085Z,72.93
2022-12-29T11:46:19.167Z,73.04
2022-12-29T11:47:13.071Z,73.05
2022-12-29T11:48:16.090Z,73.03
2022-12-29T11:49:18.083Z,72.67
2022-12-29T11:50:15.099Z,72.81
2022-12-29T11:51:11.076Z,72.80
2022-12-29T11:52:11.078Z,73.12
2022-12-29T11:53:19.077Z,72.57
2022-12-29T11:54:19.075Z,72.67
2022-12-29T11:55:19.077Z,72.97
2022-12-29T11:56:16.085Z,72.92
2022-12-29T11:57:16.074Z,72.59
2022-12-29T11:58:16.094Z,73.02
2022-12-29T11:59:19.091Z,72.92
2022-12-29T12:00:19.085Z,72.77
2022-12-29T12:01:21.165Z,72.91
2022-12-29T12:02:19.178Z,73.04
2022-12-29T12:03:19.205Z,72.94
2022-12-29T12:04:17.153Z,72.90
2022-12-29T12:05:20.079Z,72.84
2022-12-29T12:06:13.083Z,72.54
2022-12-29T12:07:19.077Z,72.64
2022-12-29T12:08:21.081Z,72.56
2022-12-29T12:09:17.080Z,72.30
2022-12-29T12:10:19.089Z,72.46
2022-12-29T12:11:22.096Z,72.63
2022-12-29T12:12:16.074Z,72.94
2022-12-29T12:13:22.076Z,72.62
2022-12-29T12:14:19.081Z,72.45
2022-12-29T12:15:19.079Z,72.17
2022-12-29T12:16:19.149Z,72.22
2022-12-29T12:17:20.071Z,72.07
2022-12-29T12:18:21.089Z,71.90
2022-12-29T12:19:19.080Z,72.05
2022-12-29T12:20:19.093Z,71.96
2022-12-29T12:21:22.077Z,71.64
2022-12-29T12:22:20.074Z,71.72
2022-12-29T12:23:19.074Z,71.30
2022-12-29T12:24:19.115Z,71.37
2022-12-29T12:25:20.095Z,70.78
2022-12-29T12:26:20.102Z,71.12
2022-12-29T12:27:19.080Z,71.20
2022-12-29T12:28:20.083Z,71.42
2022-12-29T12:29:17.077Z,70.91
2022-12-29T12:30:19.080Z,71.04
2022-12-29T12:31:22.242Z,70.96
2022-12-29T12:32:18.080Z,70.83
2022-12-29T12:33:19.079Z,71.33
2022-12-29T12:34:20.079Z,70.55
2022-12-29T12:35:21.753Z,71.08
2022-12-29T12:36:21.372Z,71.02
2022-12-29T12:37:19.081Z,71.37
2022-12-29T12:38:19.078Z,71.23
2022-12-29T12:39:22.079Z,71.07
2022-12-29T12:40:20.078Z,70.86
2022-12-29T12:41:23.090Z,71.05
2022-12-29T12:42:19.090Z,70.64
2022-12-29T12:43:19.079Z,71.41
2022-12-29T12:44:19.077Z,71.04
2022-12-29T12:45:22.082Z,70.94
2022-12-29T12:46:19.304Z,70.98
2022-12-29T12:47:19.091Z,70.64
2022-12-29T12:48:19.100Z,70.82
2022-12-29T12:49:19.084Z,70.94
2022-12-29T12:50:25.081Z,71.00
2022-12-29T12:51:22.095Z,70.77
2022-12-29T12:52:22.086Z,70.65